Wetterstation Vordersexau
Wetterdaten: Woche 05.09.16 - 11.09.16 (KW36)
Datum Zeit Temp. A. Feuchte A. Luftdruck Regen Wind Richtung Taupunkt Windchill Windben
05.09.2016 00:00 16,9 C 82 % 1016,2 hPa 0,0 l/m 8,4 km/h S-SW 13,8 C 15,9 C 4,7 km/h
05.09.2016 01:00 17,0 C 82 % 1016,1 hPa 0,0 l/m 0,0 km/h W-SW 13,9 C 17,0 C 0,0 km/h
05.09.2016 02:00 15,8 C 82 % 1016,2 hPa 3,6 l/m 0,0 km/h N 12,7 C 15,8 C 0,0 km/h
05.09.2016 03:00 15,8 C 82 % 1016,3 hPa 0,0 l/m 0,0 km/h W 12,7 C 15,8 C 0,0 km/h
05.09.2016 04:00 16,1 C 81 % 1016,4 hPa 0,0 l/m 0,0 km/h NW 12,8 C 16,1 C 0,0 km/h
05.09.2016 05:00 15,9 C 80 % 1016,6 hPa 0,5 l/m 0,0 km/h S-SO 12,5 C 15,9 C 0,0 km/h
05.09.2016 06:00 15,6 C 80 % 1016,9 hPa 1,0 l/m 0,0 km/h S-SO 12,2 C 15,6 C 0,0 km/h
05.09.2016 07:00 15,3 C 79 % 1017,7 hPa 1,6 l/m 0,0 km/h SW 11,7 C 15,3 C 0,0 km/h
05.09.2016 08:00 15,4 C 78 % 1017,8 hPa 0,5 l/m 0,0 km/h N-NO 11,6 C 15,4 C 0,0 km/h
05.09.2016 09:00 14,9 C 78 % 1018,2 hPa 1,0 l/m 0,0 km/h N-NO 11,1 C 14,9 C 0,0 km/h
05.09.2016 10:00 16,9 C 82 % 1018,7 hPa 0,0 l/m 0,0 km/h W 13,8 C 16,9 C 0,0 km/h
05.09.2016 11:00 19,3 C 80 % 1019,6 hPa 0,0 l/m 0,0 km/h S 15,8 C 19,3 C 0,0 km/h
05.09.2016 12:00 22,9 C 64 % 1019,5 hPa 0,0 l/m 0,0 km/h W 15,7 C 22,9 C 0,0 km/h
05.09.2016 13:00 21,6 C 63 % 1019,1 hPa 0,0 l/m 1,9 km/h W 14,2 C 21,6 C 1,1 km/h
05.09.2016 14:00 21,6 C 62 % 1019,7 hPa 0,0 l/m 9,1 km/h W 14,0 C 20,7 C 5,0 km/h
05.09.2016 15:00 21,9 C 61 % 1019,8 hPa 0,0 l/m 1,3 km/h W-NW 14,0 C 21,9 C 0,7 km/h
05.09.2016 16:00 23,9 C 52 % 1019,7 hPa 0,0 l/m 1,3 km/h S 13,4 C 23,9 C 0,7 km/h
05.09.2016 17:00 23,4 C 54 % 1019,8 hPa 0,0 l/m 0,6 km/h W-SW 13,6 C 23,4 C 0,4 km/h
05.09.2016 18:00 28,1 C 45 % 1020,0 hPa 0,0 l/m 0,0 km/h W-SW 15,0 C 28,1 C 0,0 km/h
05.09.2016 19:00 23,9 C 53 % 1020,1 hPa 0,0 l/m 5,8 km/h SW 13,7 C 23,9 C 3,2 km/h
05.09.2016 20:00 18,9 C 68 % 1020,6 hPa 0,0 l/m 8,4 km/h S 12,9 C 18,0 C 4,7 km/h
05.09.2016 21:00 17,6 C 73 % 1021,3 hPa 0,0 l/m 0,0 km/h S 12,7 C 17,6 C 0,0 km/h
05.09.2016 22:00 16,4 C 78 % 1021,8 hPa 0,0 l/m 0,0 km/h S 12,6 C 16,4 C 0,0 km/h
05.09.2016 23:00 15,4 C 80 % 1021,9 hPa 0,0 l/m 0,0 km/h S-SO 12,0 C 15,4 C 0,0 km/h
06.09.2016 00:00 14,0 C 82 % 1022,2 hPa 0,0 l/m 0,0 km/h S-SO 11,0 C 14,0 C 0,0 km/h
06.09.2016 01:00 12,8 C 83 % 1022,2 hPa 0,0 l/m 0,0 km/h S-SO 10,0 C 12,8 C 0,0 km/h
06.09.2016 02:00 12,2 C 83 % 1022,4 hPa 0,0 l/m 0,0 km/h S-SO 9,4 C 12,2 C 0,0 km/h
06.09.2016 03:00 11,9 C 83 % 1022,6 hPa 0,0 l/m 0,0 km/h SO 9,1 C 11,9 C 0,0 km/h
06.09.2016 04:00 11,6 C 82 % 1022,8 hPa 0,0 l/m 0,0 km/h O-SO 8,6 C 11,6 C 0,0 km/h
06.09.2016 05:00 11,2 C 82 % 1022,7 hPa 0,0 l/m 0,0 km/h O-SO 8,2 C 11,2 C 0,0 km/h
06.09.2016 06:00 10,2 C 82 % 1023,0 hPa 0,0 l/m 0,0 km/h O-SO 7,3 C 10,2 C 0,0 km/h
06.09.2016 07:00 10,1 C 81 % 1023,2 hPa 0,0 l/m 0,0 km/h O-SO 7,0 C 10,1 C 0,0 km/h
06.09.2016 08:00 11,5 C 80 % 1023,4 hPa 0,0 l/m 0,0 km/h O-NO 8,2 C 11,5 C 0,0 km/h
06.09.2016 09:00 15,4 C 65 % 1023,4 hPa 0,0 l/m 0,0 km/h S-SW 8,9 C 15,4 C 0,0 km/h
06.09.2016 10:00 23,1 C 67 % 1023,5 hPa 0,0 l/m 0,0 km/h NW 16,6 C 23,1 C 0,0 km/h
06.09.2016 11:00 24,3 C 61 % 1023,2 hPa 0,0 l/m 0,0 km/h W-SW 16,3 C 24,3 C 0,0 km/h
06.09.2016 12:00 25,9 C 58 % 1022,8 hPa 0,0 l/m 0,0 km/h W 17,0 C 25,9 C 0,0 km/h
06.09.2016 13:00 28,5 C 47 % 1022,2 hPa 0,0 l/m 1,3 km/h N 16,1 C 28,5 C 0,7 km/h
06.09.2016 14:00 28,9 C 43 % 1021,5 hPa 0,0 l/m 1,9 km/h N-NO 15,0 C 28,9 C 1,1 km/h
06.09.2016 15:00 30,6 C 38 % 1021,3 hPa 0,0 l/m 0,0 km/h N-NO 14,6 C 30,6 C 0,0 km/h
06.09.2016 16:00 32,1 C 34 % 1020,8 hPa 0,0 l/m 13,0 km/h N 14,2 C 31,9 C 7,2 km/h
06.09.2016 17:00 35,3 C 30 % 1020,5 hPa 0,0 l/m 8,4 km/h N-NO 15,0 C 35,3 C 4,7 km/h
06.09.2016 18:00 33,9 C 30 % 1020,2 hPa 0,0 l/m 0,0 km/h N 13,9 C 33,9 C 0,0 km/h
06.09.2016 19:00 31,2 C 34 % 1020,0 hPa 0,0 l/m 0,0 km/h N-NO 13,4 C 31,2 C 0,0 km/h
06.09.2016 20:00 21,3 C 52 % 1020,6 hPa 0,0 l/m 0,0 km/h N-NO 11,0 C 21,3 C 0,0 km/h
06.09.2016 21:00 17,6 C 65 % 1020,7 hPa 0,0 l/m 0,0 km/h O-SO 10,9 C 17,6 C 0,0 km/h
06.09.2016 22:00 16,5 C 70 % 1020,8 hPa 0,0 l/m 0,0 km/h O-SO 11,0 C 16,5 C 0,0 km/h
06.09.2016 23:00 15,2 C 73 % 1020,3 hPa 0,0 l/m 0,0 km/h SO 10,4 C 15,2 C 0,0 km/h
07.09.2016 00:00 14,0 C 76 % 1019,7 hPa 0,0 l/m 0,0 km/h O-NO 9,8 C 14,0 C 0,0 km/h
07.09.2016 01:00 13,0 C 81 % 1019,4 hPa 0,0 l/m 0,0 km/h NO 9,8 C 13,0 C 0,0 km/h
07.09.2016 02:00 12,5 C 82 % 1018,7 hPa 0,0 l/m 0,0 km/h NO 9,5 C 12,5 C 0,0 km/h
07.09.2016 03:00 14,5 C 79 % 1018,0 hPa 0,0 l/m 0,0 km/h O-NO 10,9 C 14,5 C 0,0 km/h
07.09.2016 04:00 16,1 C 70 % 1017,5 hPa 0,0 l/m 0,0 km/h NO 10,6 C 16,1 C 0,0 km/h
07.09.2016 05:00 15,1 C 71 % 1017,0 hPa 0,0 l/m 0,0 km/h N-NW 9,9 C 15,1 C 0,0 km/h
07.09.2016 06:00 13,0 C 74 % 1016,7 hPa 0,0 l/m 0,0 km/h N-NW 8,5 C 13,0 C 0,0 km/h
07.09.2016 07:00 13,0 C 74 % 1017,5 hPa 0,0 l/m 0,0 km/h N-NW 8,5 C 13,0 C 0,0 km/h
07.09.2016 08:00 0,0 C 0 % 1017,5 hPa 0,0 l/m 0,0 km/h N-NW -60,0 C 0,0 C 0,0 km/h
07.09.2016 09:00 0,0 C 0 % 1017,4 hPa 0,0 l/m 0,0 km/h N-NO -60,0 C 0,0 C 0,0 km/h
07.09.2016 10:00 26,2 C 50 % 1016,8 hPa 0,0 l/m 0,0 km/h N-NO 14,9 C 26,2 C 0,0 km/h
07.09.2016 11:00 26,9 C 46 % 1016,4 hPa 0,0 l/m 0,0 km/h S 14,3 C 26,9 C 0,0 km/h
07.09.2016 12:00 26,5 C 48 % 1015,9 hPa 0,0 l/m 5,2 km/h S-SW 14,6 C 26,5 C 2,9 km/h
07.09.2016 13:00 27,9 C 47 % 1015,6 hPa 0,0 l/m 20,1 km/h W-NW 15,5 C 26,4 C 11,2 km/h
07.09.2016 14:00 28,9 C 44 % 1015,2 hPa 0,0 l/m 11,0 km/h W-SW 15,4 C 28,4 C 6,1 km/h
07.09.2016 15:00 29,9 C 42 % 1015,0 hPa 0,0 l/m 7,1 km/h W 15,6 C 29,8 C 4,0 km/h
07.09.2016 16:00 32,1 C 39 % 1014,3 hPa 0,0 l/m 0,0 km/h N-NW 16,4 C 32,1 C 0,0 km/h
07.09.2016 17:00 34,9 C 34 % 1013,8 hPa 0,0 l/m 0,0 km/h W 16,7 C 34,9 C 0,0 km/h
07.09.2016 18:00 33,9 C 34 % 1013,3 hPa 0,0 l/m 0,0 km/h W-NW 15,8 C 33,9 C 0,0 km/h
07.09.2016 19:00 31,1 C 39 % 1013,0 hPa 0,0 l/m 0,6 km/h W-NW 15,5 C 31,1 C 0,4 km/h
07.09.2016 20:00 21,9 C 58 % 1013,0 hPa 0,0 l/m 0,0 km/h W-NW 13,3 C 21,9 C 0,0 km/h
07.09.2016 21:00 18,3 C 73 % 1013,1 hPa 0,0 l/m 0,0 km/h W-NW 13,4 C 18,3 C 0,0 km/h
07.09.2016 22:00 16,8 C 76 % 1012,9 hPa 0,0 l/m 0,0 km/h N 12,5 C 16,8 C 0,0 km/h
07.09.2016 23:00 15,6 C 80 % 1012,8 hPa 0,0 l/m 0,0 km/h O-NO 12,2 C 15,6 C 0,0 km/h
08.09.2016 00:00 14,9 C 81 % 1012,7 hPa 0,0 l/m 0,0 km/h O-NO 11,7 C 14,9 C 0,0 km/h
08.09.2016 01:00 13,6 C 82 % 1012,5 hPa 0,0 l/m 0,0 km/h SO 10,6 C 13,6 C 0,0 km/h
08.09.2016 02:00 13,8 C 83 % 1012,0 hPa 0,0 l/m 0,0 km/h SO 11,0 C 13,8 C 0,0 km/h
08.09.2016 03:00 13,4 C 83 % 1011,9 hPa 0,0 l/m 0,0 km/h SO 10,6 C 13,4 C 0,0 km/h
08.09.2016 04:00 13,1 C 83 % 1011,9 hPa 0,0 l/m 6,5 km/h SO 10,3 C 13,1 C 3,6 km/h
08.09.2016 05:00 12,4 C 83 % 1011,6 hPa 0,0 l/m 0,0 km/h SO 9,6 C 12,4 C 0,0 km/h
08.09.2016 06:00 12,1 C 83 % 1011,4 hPa 0,0 l/m 0,0 km/h SO 9,3 C 12,1 C 0,0 km/h
08.09.2016 07:00 12,1 C 83 % 1011,6 hPa 0,0 l/m 0,0 km/h SO 9,3 C 12,1 C 0,0 km/h
08.09.2016 08:00 0,0 C 0 % 1011,9 hPa 0,0 l/m 0,0 km/h SO -60,0 C 0,0 C 0,0 km/h
08.09.2016 09:00 0,0 C 0 % 1012,0 hPa 0,0 l/m 0,0 km/h N-NO -60,0 C 0,0 C 0,0 km/h
08.09.2016 10:00 27,3 C 57 % 1011,9 hPa 0,0 l/m 0,0 km/h W 18,0 C 27,3 C 0,0 km/h
08.09.2016 11:00 28,7 C 45 % 1012,3 hPa 0,0 l/m 16,2 km/h S-SW 15,6 C 27,7 C 9,0 km/h
08.09.2016 12:00 29,2 C 43 % 1012,1 hPa 0,0 l/m 20,1 km/h W 15,3 C 28,1 C 11,2 km/h
08.09.2016 13:00 30,8 C 41 % 1011,9 hPa 0,0 l/m 24,0 km/h W 16,0 C 30,0 C 13,3 km/h
08.09.2016 14:00 32,3 C 37 % 1011,9 hPa 0,0 l/m 0,0 km/h SW 15,7 C 32,3 C 0,0 km/h
08.09.2016 15:00 32,7 C 36 % 1011,4 hPa 0,0 l/m 9,7 km/h W-SW 15,6 C 32,7 C 5,4 km/h
08.09.2016 16:00 33,5 C 34 % 1011,3 hPa 0,0 l/m 16,8 km/h W-SW 15,4 C 33,5 C 9,4 km/h
08.09.2016 17:00 34,3 C 32 % 1010,9 hPa 0,0 l/m 13,0 km/h SW 15,2 C 34,3 C 7,2 km/h
08.09.2016 18:00 34,2 C 32 % 1011,0 hPa 0,0 l/m 21,4 km/h W-SW 15,1 C 34,2 C 11,9 km/h
08.09.2016 19:00 31,4 C 36 % 1011,1 hPa 0,0 l/m 0,0 km/h W-SW 14,5 C 31,4 C 0,0 km/h
08.09.2016 20:00 23,8 C 52 % 1011,5 hPa 0,0 l/m 0,0 km/h W 13,3 C 23,8 C 0,0 km/h
08.09.2016 21:00 20,4 C 64 % 1012,3 hPa 0,0 l/m 0,0 km/h SO 13,4 C 20,4 C 0,0 km/h
08.09.2016 22:00 18,9 C 69 % 1012,5 hPa 0,0 l/m 0,0 km/h SO 13,1 C 18,9 C 0,0 km/h
08.09.2016 23:00 17,8 C 73 % 1013,1 hPa 0,0 l/m 0,0 km/h SO 12,9 C 17,8 C 0,0 km/h
09.09.2016 00:00 17,8 C 75 % 1013,6 hPa 0,0 l/m 0,0 km/h SO 13,3 C 17,8 C 0,0 km/h
09.09.2016 01:00 16,6 C 77 % 1014,1 hPa 0,0 l/m 0,0 km/h SO 12,5 C 16,6 C 0,0 km/h
09.09.2016 02:00 15,8 C 80 % 1013,9 hPa 0,0 l/m 0,0 km/h SO 12,4 C 15,8 C 0,0 km/h
09.09.2016 03:00 15,2 C 81 % 1014,0 hPa 0,0 l/m 0,0 km/h SO 12,0 C 15,2 C 0,0 km/h
09.09.2016 04:00 14,9 C 83 % 1014,3 hPa 0,0 l/m 0,0 km/h SO 12,0 C 14,9 C 0,0 km/h
09.09.2016 05:00 14,4 C 83 % 1014,4 hPa 0,0 l/m 0,0 km/h SO 11,5 C 14,4 C 0,0 km/h
09.09.2016 06:00 14,4 C 83 % 1014,8 hPa 0,0 l/m 0,0 km/h SO 11,5 C 14,4 C 0,0 km/h
09.09.2016 07:00 14,4 C 83 % 1015,1 hPa 0,0 l/m 0,0 km/h SO 11,5 C 14,4 C 0,0 km/h
09.09.2016 08:00 16,3 C 83 % 1015,3 hPa 0,0 l/m 0,0 km/h SO 13,4 C 16,3 C 0,0 km/h
09.09.2016 09:00 16,3 C 83 % 1015,7 hPa 0,0 l/m 0,0 km/h NO 13,4 C 16,3 C 0,0 km/h
09.09.2016 10:00 24,8 C 60 % 1015,8 hPa 0,0 l/m 4,5 km/h S 16,5 C 24,8 C 2,5 km/h
09.09.2016 11:00 26,8 C 58 % 1015,8 hPa 0,0 l/m 0,0 km/h W 17,8 C 26,8 C 0,0 km/h
09.09.2016 12:00 28,1 C 55 % 1015,1 hPa 0,0 l/m 0,0 km/h W-NW 18,2 C 28,1 C 0,0 km/h
09.09.2016 13:00 29,8 C 50 % 1014,8 hPa 0,0 l/m 0,0 km/h W 18,2 C 29,8 C 0,0 km/h
09.09.2016 14:00 30,3 C 48 % 1014,3 hPa 0,0 l/m 22,7 km/h W-NW 18,0 C 29,4 C 12,6 km/h
09.09.2016 15:00 31,8 C 45 % 1013,7 hPa 0,0 l/m 0,0 km/h N-NO 18,4 C 31,8 C 0,0 km/h
09.09.2016 16:00 33,3 C 41 % 1013,2 hPa 0,0 l/m 4,5 km/h N-NO 18,2 C 33,3 C 2,5 km/h
09.09.2016 17:00 34,0 C 37 % 1012,9 hPa 0,0 l/m 13,0 km/h N-NO 17,2 C 34,0 C 7,2 km/h
09.09.2016 18:00 32,2 C 40 % 1012,9 hPa 0,0 l/m 13,0 km/h N-NO 16,9 C 32,1 C 7,2 km/h
09.09.2016 19:00 29,6 C 46 % 1013,1 hPa 0,0 l/m 0,0 km/h N-NO 16,7 C 29,6 C 0,0 km/h
09.09.2016 20:00 23,7 C 59 % 1013,4 hPa 0,0 l/m 0,0 km/h O-NO 15,2 C 23,7 C 0,0 km/h
09.09.2016 21:00 19,4 C 73 % 1014,0 hPa 0,0 l/m 0,0 km/h O-NO 14,4 C 19,4 C 0,0 km/h
09.09.2016 22:00 18,4 C 77 % 1014,0 hPa 0,0 l/m 0,0 km/h O 14,3 C 18,4 C 0,0 km/h
09.09.2016 23:00 17,3 C 80 % 1014,1 hPa 0,0 l/m 0,0 km/h NO 13,8 C 17,3 C 0,0 km/h
10.09.2016 00:00 16,8 C 81 % 1014,0 hPa 0,0 l/m 0,0 km/h NO 13,5 C 16,8 C 0,0 km/h
10.09.2016 01:00 15,9 C 82 % 1014,1 hPa 0,0 l/m 0,0 km/h NO 12,8 C 15,9 C 0,0 km/h
10.09.2016 02:00 15,4 C 83 % 1013,9 hPa 0,0 l/m 0,0 km/h NO 12,5 C 15,4 C 0,0 km/h
10.09.2016 03:00 14,1 C 83 % 1014,3 hPa 0,0 l/m 0,0 km/h NO 11,3 C 14,1 C 0,0 km/h
10.09.2016 04:00 14,2 C 83 % 1014,3 hPa 0,0 l/m 0,0 km/h NO 11,4 C 14,2 C 0,0 km/h
10.09.2016 05:00 13,9 C 82 % 1014,1 hPa 0,0 l/m 0,0 km/h NO 10,9 C 13,9 C 0,0 km/h
10.09.2016 06:00 13,3 C 82 % 1014,3 hPa 0,0 l/m 0,0 km/h NO 10,3 C 13,3 C 0,0 km/h
10.09.2016 07:00 12,8 C 82 % 1014,6 hPa 0,0 l/m 0,0 km/h NO 9,8 C 12,8 C 0,0 km/h
10.09.2016 08:00 14,3 C 81 % 1014,6 hPa 0,0 l/m 0,0 km/h O 11,1 C 14,3 C 0,0 km/h
10.09.2016 09:00 18,4 C 80 % 1014,8 hPa 0,0 l/m 0,0 km/h NW 14,9 C 18,4 C 0,0 km/h
10.09.2016 10:00 25,6 C 64 % 1014,9 hPa 0,0 l/m 0,0 km/h W 18,3 C 25,6 C 0,0 km/h
10.09.2016 11:00 27,9 C 57 % 1014,7 hPa 0,0 l/m 0,0 km/h SW 18,6 C 27,9 C 0,0 km/h
10.09.2016 12:00 29,4 C 53 % 1014,4 hPa 0,0 l/m 4,5 km/h SW 18,8 C 29,4 C 2,5 km/h
10.09.2016 13:00 31,4 C 47 % 1013,8 hPa 0,0 l/m 12,3 km/h N-NW 18,7 C 31,1 C 6,8 km/h
10.09.2016 14:00 32,2 C 44 % 1013,3 hPa 0,0 l/m 3,9 km/h W-NW 18,4 C 32,2 C 2,2 km/h
10.09.2016 15:00 33,3 C 39 % 1012,8 hPa 0,0 l/m 0,0 km/h W-NW 17,4 C 33,3 C 0,0 km/h
10.09.2016 16:00 35,1 C 35 % 1012,5 hPa 0,0 l/m 0,0 km/h N-NW 17,3 C 35,1 C 0,0 km/h
10.09.2016 17:00 36,9 C 33 % 1012,2 hPa 0,0 l/m 0,0 km/h W-NW 17,9 C 36,9 C 0,0 km/h
10.09.2016 18:00 35,4 C 33 % 1011,9 hPa 0,0 l/m 0,0 km/h N-NO 16,6 C 35,4 C 0,0 km/h
10.09.2016 19:00 33,4 C 39 % 1012,0 hPa 0,0 l/m 0,0 km/h N-NO 17,5 C 33,4 C 0,0 km/h
10.09.2016 20:00 23,3 C 60 % 1012,3 hPa 0,0 l/m 0,0 km/h N-NO 15,1 C 23,3 C 0,0 km/h
10.09.2016 21:00 20,3 C 68 % 1013,1 hPa 0,0 l/m 0,0 km/h N-NO 14,2 C 20,3 C 0,0 km/h
10.09.2016 22:00 19,2 C 72 % 1013,7 hPa 0,0 l/m 0,0 km/h N-NO 14,0 C 19,2 C 0,0 km/h
10.09.2016 23:00 18,4 C 77 % 1014,3 hPa 0,0 l/m 0,0 km/h NO 14,3 C 18,4 C 0,0 km/h
11.09.2016 00:00 18,6 C 78 % 1014,0 hPa 0,0 l/m 0,0 km/h NO 14,7 C 18,6 C 0,0 km/h
11.09.2016 01:00 18,1 C 80 % 1013,8 hPa 0,0 l/m 0,0 km/h NO 14,6 C 18,1 C 0,0 km/h
11.09.2016 02:00 16,8 C 81 % 1014,1 hPa 0,0 l/m 0,0 km/h NO 13,5 C 16,8 C 0,0 km/h
11.09.2016 03:00 16,1 C 82 % 1014,1 hPa 0,0 l/m 0,0 km/h NO 13,0 C 16,1 C 0,0 km/h
11.09.2016 04:00 15,4 C 83 % 1014,7 hPa 0,0 l/m 0,0 km/h NO 12,5 C 15,4 C 0,0 km/h
11.09.2016 05:00 14,8 C 83 % 1014,7 hPa 0,0 l/m 0,0 km/h NO 11,9 C 14,8 C 0,0 km/h
11.09.2016 06:00 14,7 C 83 % 1014,8 hPa 0,0 l/m 0,0 km/h NO 11,8 C 14,7 C 0,0 km/h
11.09.2016 07:00 14,5 C 83 % 1015,4 hPa 0,0 l/m 0,0 km/h NO 11,6 C 14,5 C 0,0 km/h
11.09.2016 08:00 15,8 C 82 % 1015,9 hPa 0,0 l/m 0,0 km/h O-SO 12,7 C 15,8 C 0,0 km/h
11.09.2016 09:00 19,6 C 82 % 1016,3 hPa 0,0 l/m 0,0 km/h W-NW 16,4 C 19,6 C 0,0 km/h
11.09.2016 10:00 26,8 C 60 % 1016,7 hPa 0,0 l/m 0,0 km/h N-NO 18,4 C 26,8 C 0,0 km/h
11.09.2016 11:00 27,9 C 56 % 1016,5 hPa 0,0 l/m 0,0 km/h NW 18,3 C 27,9 C 0,0 km/h
11.09.2016 12:00 29,6 C 49 % 1016,1 hPa 0,0 l/m 0,0 km/h N-NO 17,7 C 29,6 C 0,0 km/h
11.09.2016 13:00 32,0 C 45 % 1015,8 hPa 0,0 l/m 0,0 km/h W-NW 18,5 C 32,0 C 0,0 km/h
11.09.2016 14:00 32,6 C 42 % 1015,1 hPa 0,0 l/m 0,0 km/h NW 18,0 C 32,6 C 0,0 km/h
11.09.2016 15:00 33,1 C 40 % 1014,8 hPa 0,0 l/m 7,8 km/h W-NW 17,7 C 33,1 C 4,3 km/h
11.09.2016 16:00 34,1 C 36 % 1014,4 hPa 0,0 l/m 0,0 km/h N-NO 16,9 C 34,1 C 0,0 km/h
11.09.2016 17:00 36,3 C 33 % 1014,0 hPa 0,0 l/m 0,0 km/h N 17,4 C 36,3 C 0,0 km/h
11.09.2016 18:00 30,3 C 40 % 1013,7 hPa 0,0 l/m 0,0 km/h N 15,2 C 30,3 C 0,0 km/h
11.09.2016 19:00 26,9 C 48 % 1014,0 hPa 0,0 l/m 0,0 km/h N 14,9 C 26,9 C 0,0 km/h
11.09.2016 20:00 21,4 C 64 % 1014,7 hPa 0,0 l/m 0,0 km/h N 14,3 C 21,4 C 0,0 km/h
11.09.2016 21:00 20,0 C 70 % 1014,8 hPa 0,0 l/m 0,0 km/h O-SO 14,4 C 20,0 C 0,0 km/h
11.09.2016 22:00 19,2 C 75 % 1015,1 hPa 0,0 l/m 0,0 km/h O-SO 14,7 C 19,2 C 0,0 km/h
11.09.2016 23:00 18,3 C 78 % 1015,1 hPa 0,0 l/m 0,0 km/h O-SO 14,4 C 18,3 C 0,0 km/h
Min-Datum _ 07.09.16 07.09.16 08.09.16 - 05.09.16 - 07.09.16 07.09.16 05.09.16
_ Min-Zeit 08:12 08:12 17:12 - 01:12 - 08:12 08:12 01:12
Minimum _ 0,0 C 0 % 1010,9 hPa - 0,0 km/h - -60,0 C 0,0 C 0,0 km/h
Max-Datum _ 10.09.16 06.09.16 06.09.16 05.09.16 08.09.16 - 10.09.16 10.09.16 08.09.16
_ Max-Zeit 17:12 01:12 10:12 02:12 13:12 - 12:12 17:12 13:12
Maximum _ 36,9 C 83 % 1023,5 hPa 3,6 l/m 24,0 km/h
W
- 18,8 C 36,9 C 13,3 km/h
W
Durchschnitt _ 21,2 C 63 % 1015,9 hPa #8,3 l/m 1,9 km/h N-NO 12,0 C 21,1 C 1,1 km/h
www.sexauwetter.de